Pelagos — SZSW — position and weather

sailwx.info

Track history (hours):
 
Tides and Currents Weather Stations Pressure Air Temp Water Temp Dewpoint Dewpoint Depression Visibility Wind Speed Wind Dir Waves Ship Positions

Pelagos

Last reported at 2017-Mar-29 08:33 UTC. Time now 2017-Mar-29 09:20 UTC.
Position N 57°45' E 010°49'.

Length 249 m; draft 8 m.

Type: Tanker. MMSI: 240335000.

Date/timePositionNaut miles runAvg speedWind from/ knotsBaromVisibWave heightAir tempDewpointWater temp
2017-Mar-29 08:33N 57°45' E 010°49'7 6.6
2017-Mar-29 07:33N 57°47' E 010°37'6 6.5
2017-Mar-29 06:33N 57°47' E 010°25'8 8.2
2017-Mar-29 05:32N 57°46' E 010°09'9 9.3
2017-Mar-29 04:33N 57°45' E 009°52'9 8.8
2017-Mar-29 03:33N 57°43' E 009°36'8 8.3
2017-Mar-29 02:33N 57°41' E 009°21'9 8.7
2017-Mar-29 01:29N 57°38' E 009°04'17 8.9
2017-Mar-28 23:33N 57°33' E 008°34'42 7.0
2017-Mar-28 17:33N 57°17' E 007°22'9 7.8
2017-Mar-28 16:24N 57°13' E 007°07'7 8.7
2017-Mar-28 15:33N 57°09' E 006°56'9 8.2
2017-Mar-28 14:29N 57°03' E 006°44'8 8.0
2017-Mar-28 13:30N 56°56' E 006°38'10 1.9
2017-Mar-28 08:13N 56°47' E 006°30'0 0.0
2017-Mar-28 07:19N 56°47' E 006°30'0 0.0
2017-Mar-28 06:13N 56°47' E 006°30'0 0.0
2017-Mar-28 05:31N 56°47' E 006°30'0 0.0
2017-Mar-28 04:31N 56°47' E 006°30'175 3.8
2017-Mar-26 06:24N 54°04' E 004°39'26 8.4
2017-Mar-26 03:22N 53°43' E 004°14'7 8.5
2017-Mar-26 02:33N 53°39' E 004°05'19 8.0
2017-Mar-26 00:09N 53°25' E 003°42'5 8.2
2017-Mar-25 23:33N 53°21' E 003°39'8 7.8
2017-Mar-25 22:33N 53°14' E 003°33'7 7.5
2017-Mar-25 21:33N 53°07' E 003°28'7 7.3
2017-Mar-25 20:33N 53°00' E 003°23'7 6.9
2017-Mar-25 19:33N 52°54' E 003°20'7 6.6
2017-Mar-25 18:33N 52°47' E 003°16'7 6.7
2017-Mar-25 17:33N 52°41' E 003°14'7 7.1
2017-Mar-25 16:33N 52°34' E 003°14'9 7.6
2017-Mar-25 15:26N 52°25' E 003°13'7 7.7
2017-Mar-25 14:33N 52°18' E 003°14'9 8.9
2017-Mar-25 13:33N 52°12' E 003°24'9 9.0
2017-Mar-25 12:33N 52°07' E 003°36'9 8.8
2017-Mar-25 11:33N 52°03' E 003°49'10 9.7
2017-Mar-25 10:33N 51°59' E 004°03'6 5.8
2017-Mar-25 09:31N 51°56' E 004°12'0 0.0
2017-Mar-25 08:31N 51°56' E 004°12'0 0.0
2017-Mar-25 07:22N 51°56' E 004°12'0 0.0
2017-Mar-25 06:31N 51°56' E 004°12'0 0.0
2017-Mar-25 05:31N 51°56' E 004°12'0 0.0
2017-Mar-25 04:31N 51°56' E 004°12'0 0.0
2017-Mar-25 03:31N 51°56' E 004°12'0 0.0
2017-Mar-25 02:28N 51°56' E 004°12'0 0.0
2017-Mar-25 01:31N 51°56' E 004°12'0 0.0
2017-Mar-25 00:28N 51°56' E 004°12'0 0.0
2017-Mar-24 23:31N 51°56' E 004°12'0 0.0
2017-Mar-24 22:31N 51°56' E 004°12'0 0.0
2017-Mar-24 21:31N 51°56' E 004°12'0 0.0
2017-Mar-24 20:31N 51°56' E 004°12'0 0.0
2017-Mar-24 19:31N 51°56' E 004°12'0 0.0
2017-Mar-24 18:28N 51°56' E 004°12'0 0.0
2017-Mar-24 17:31N 51°56' E 004°12'0 0.0
2017-Mar-24 16:31N 51°56' E 004°12'0 0.0
2017-Mar-24 15:31N 51°56' E 004°12'0 0.0
2017-Mar-24 14:31N 51°56' E 004°12'0 0.0
2017-Mar-24 13:28N 51°56' E 004°12'0 0.0
2017-Mar-24 12:31N 51°56' E 004°12'0 0.0
2017-Mar-24 11:31N 51°56' E 004°12'0 0.0
2017-Mar-24 10:31N 51°56' E 004°12'0 0.0
2017-Mar-24 09:31N 51°56' E 004°12'0 0.0
2017-Mar-24 08:31N 51°56' E 004°12'0 0.0
2017-Mar-24 07:31N 51°56' E 004°12'0 0.0
2017-Mar-24 06:31N 51°56' E 004°12'0 0.0
2017-Mar-24 05:31N 51°56' E 004°12'0 0.0
2017-Mar-24 04:31N 51°56' E 004°12'0 0.0
2017-Mar-24 03:31N 51°56' E 004°12'0 0.0
2017-Mar-24 02:31N 51°56' E 004°12'0 0.0
2017-Mar-24 01:31N 51°56' E 004°12'0 0.0
2017-Mar-24 00:31N 51°56' E 004°12'0 0.0
2017-Mar-23 23:31N 51°56' E 004°12'0 0.0
2017-Mar-23 22:31N 51°56' E 004°12'0 0.0
2017-Mar-23 21:28N 51°56' E 004°12'0 0.0
2017-Mar-23 20:28N 51°56' E 004°12'0 0.0
2017-Mar-23 19:31N 51°56' E 004°12'0 0.0
2017-Mar-23 18:31N 51°56' E 004°12'0 0.0
2017-Mar-23 17:25N 51°56' E 004°12'0 0.0
2017-Mar-23 16:31N 51°56' E 004°12'0 0.0
2017-Mar-23 15:31N 51°56' E 004°12'0 0.0
2017-Mar-23 14:25N 51°56' E 004°12'0 0.0
2017-Mar-23 13:28N 51°56' E 004°12'0 0.0
2017-Mar-23 12:33N 51°56' E 004°12'0 0.4
2017-Mar-23 11:33N 51°56' E 004°12'5 5.0
2017-Mar-23 10:33N 51°58' E 004°06'1211.7
2017-Mar-23 09:34N 52°00' E 003°47'7 7.5
2017-Mar-23 08:33N 52°06' E 003°39'5 3.7
2017-Mar-23 07:19N 52°11' E 003°38'0 0.0
2017-Mar-23 06:30N 52°11' E 003°38'0 0.0
2017-Mar-23 04:12N 52°11' E 003°38'0 0.0
2017-Mar-23 03:25N 52°11' E 003°38'0 0.0
2017-Mar-23 02:25N 52°11' E 003°38'0 0.1
2017-Mar-23 01:19N 52°11' E 003°38'0 0.1
2017-Mar-23 00:30N 52°11' E 003°38'0 0.0
2017-Mar-22 22:33N 52°11' E 003°38'0 0.0
2017-Mar-22 21:07N 52°11' E 003°38'0 0.1
2017-Mar-22 19:09N 52°11' E 003°38'0 0.0
2017-Mar-22 16:22N 52°11' E 003°38'0 0.0
2017-Mar-22 15:15N 52°11' E 003°38'0 0.1
2017-Mar-22 12:04N 52°11' E 003°38'0 0.0
2017-Mar-22 09:33N 52°11' E 003°38'0 0.0
2017-Mar-22 07:28N 52°11' E 003°38'0 0.0
2017-Mar-22 06:19N 52°11' E 003°38'0 0.1
2017-Mar-22 02:06N 52°11' E 003°38'0 0.2
2017-Mar-22 01:33N 52°11' E 003°38'0 0.0
2017-Mar-22 00:30N 52°11' E 003°38'0 0.0
2017-Mar-21 23:33N 52°11' E 003°38'0 0.0
2017-Mar-21 22:28N 52°11' E 003°38'0 0.0
2017-Mar-21 21:33N 52°11' E 003°38'0 0.0
2017-Mar-21 20:25N 52°11' E 003°38'0 0.0
2017-Mar-21 19:09N 52°11' E 003°38'0 0.0
2017-Mar-21 18:33N 52°11' E 003°38'0 0.0
2017-Mar-21 11:28N 52°11' E 003°38'0 0.0
2017-Mar-21 07:33N 52°11' E 003°38'3 3.1
2017-Mar-21 06:28N 52°14' E 003°35'2 0.6
2017-Mar-21 02:29N 52°13' E 003°32'0 0.3
2017-Mar-21 01:29N 52°13' E 003°32'0 0.1
2017-Mar-21 00:28N 52°13' E 003°33'1 0.6
2017-Mar-20 23:33N 52°13' E 003°32'2 1.8
2017-Mar-20 22:32N 52°14' E 003°34'1 1.2
2017-Mar-20 21:28N 52°13' E 003°33'0 0.1
2017-Mar-20 20:33N 52°13' E 003°33'0 0.1
2017-Mar-20 17:28N 52°13' E 003°33'5 5.0
2017-Mar-20 16:33N 52°09' E 003°33'1 1.3
2017-Mar-20 15:33N 52°09' E 003°35'0 0.0
2017-Mar-20 14:33N 52°09' E 003°35'0 0.0
2017-Mar-20 10:12N 52°09' E 003°35'0 0.0
2017-Mar-20 08:18N 52°09' E 003°35'0 0.0
2017-Mar-20 05:06N 52°09' E 003°35'1 0.2
2017-Mar-20 01:32N 52°10' E 003°35'  
Track history (hours):
 
Tides and Currents Weather Stations Pressure Air Temp Water Temp Dewpoint Dewpoint Depression Visibility Wind Speed Wind Dir Waves Ship Positions

Pelagos

Last reported at 2017-Mar-29 08:33 UTC. Time now 2017-Mar-29 09:20 UTC.
Position N 57°45' E 010°49'.

Length 249 m; draft 8 m.

Type: Tanker. MMSI: 240335000.

Date/timePositionNaut miles runAvg speedWind from/ knotsBaromVisibWave heightAir tempDewpointWater temp
2017-Mar-29 08:33N 57°45' E 010°49'7 6.6
2017-Mar-29 07:33N 57°47' E 010°37'6 6.5
2017-Mar-29 06:33N 57°47' E 010°25'8 8.2
2017-Mar-29 05:32N 57°46' E 010°09'9 9.3
2017-Mar-29 04:33N 57°45' E 009°52'9 8.8
2017-Mar-29 03:33N 57°43' E 009°36'8 8.3
2017-Mar-29 02:33N 57°41' E 009°21'9 8.7
2017-Mar-29 01:29N 57°38' E 009°04'17 8.9
2017-Mar-28 23:33N 57°33' E 008°34'42 7.0
2017-Mar-28 17:33N 57°17' E 007°22'9 7.8
2017-Mar-28 16:24N 57°13' E 007°07'7 8.7
2017-Mar-28 15:33N 57°09' E 006°56'9 8.2
2017-Mar-28 14:29N 57°03' E 006°44'8 8.0
2017-Mar-28 13:30N 56°56' E 006°38'10 1.9
2017-Mar-28 08:13N 56°47' E 006°30'0 0.0
2017-Mar-28 07:19N 56°47' E 006°30'0 0.0
2017-Mar-28 06:13N 56°47' E 006°30'0 0.0
2017-Mar-28 05:31N 56°47' E 006°30'0 0.0
2017-Mar-28 04:31N 56°47' E 006°30'175 3.8
2017-Mar-26 06:24N 54°04' E 004°39'26 8.4
2017-Mar-26 03:22N 53°43' E 004°14'7 8.5
2017-Mar-26 02:33N 53°39' E 004°05'19 8.0
2017-Mar-26 00:09N 53°25' E 003°42'5 8.2
2017-Mar-25 23:33N 53°21' E 003°39'8 7.8
2017-Mar-25 22:33N 53°14' E 003°33'7 7.5
2017-Mar-25 21:33N 53°07' E 003°28'7 7.3
2017-Mar-25 20:33N 53°00' E 003°23'7 6.9
2017-Mar-25 19:33N 52°54' E 003°20'7 6.6
2017-Mar-25 18:33N 52°47' E 003°16'7 6.7
2017-Mar-25 17:33N 52°41' E 003°14'7 7.1
2017-Mar-25 16:33N 52°34' E 003°14'9 7.6
2017-Mar-25 15:26N 52°25' E 003°13'7 7.7
2017-Mar-25 14:33N 52°18' E 003°14'9 8.9
2017-Mar-25 13:33N 52°12' E 003°24'9 9.0
2017-Mar-25 12:33N 52°07' E 003°36'9 8.8
2017-Mar-25 11:33N 52°03' E 003°49'10 9.7
2017-Mar-25 10:33N 51°59' E 004°03'6 5.8
2017-Mar-25 09:31N 51°56' E 004°12'0 0.0
2017-Mar-25 08:31N 51°56' E 004°12'0 0.0
2017-Mar-25 07:22N 51°56' E 004°12'0 0.0
2017-Mar-25 06:31N 51°56' E 004°12'0 0.0
2017-Mar-25 05:31N 51°56' E 004°12'0 0.0
2017-Mar-25 04:31N 51°56' E 004°12'0 0.0
2017-Mar-25 03:31N 51°56' E 004°12'0 0.0
2017-Mar-25 02:28N 51°56' E 004°12'0 0.0
2017-Mar-25 01:31N 51°56' E 004°12'0 0.0
2017-Mar-25 00:28N 51°56' E 004°12'0 0.0
2017-Mar-24 23:31N 51°56' E 004°12'0 0.0
2017-Mar-24 22:31N 51°56' E 004°12'0 0.0
2017-Mar-24 21:31N 51°56' E 004°12'0 0.0
2017-Mar-24 20:31N 51°56' E 004°12'0 0.0
2017-Mar-24 19:31N 51°56' E 004°12'0 0.0
2017-Mar-24 18:28N 51°56' E 004°12'0 0.0
2017-Mar-24 17:31N 51°56' E 004°12'0 0.0
2017-Mar-24 16:31N 51°56' E 004°12'0 0.0
2017-Mar-24 15:31N 51°56' E 004°12'0 0.0
2017-Mar-24 14:31N 51°56' E 004°12'0 0.0
2017-Mar-24 13:28N 51°56' E 004°12'0 0.0
2017-Mar-24 12:31N 51°56' E 004°12'0 0.0
2017-Mar-24 11:31N 51°56' E 004°12'0 0.0
2017-Mar-24 10:31N 51°56' E 004°12'0 0.0
2017-Mar-24 09:31N 51°56' E 004°12'0 0.0
2017-Mar-24 08:31N 51°56' E 004°12'0 0.0
2017-Mar-24 07:31N 51°56' E 004°12'0 0.0
2017-Mar-24 06:31N 51°56' E 004°12'0 0.0
2017-Mar-24 05:31N 51°56' E 004°12'0 0.0
2017-Mar-24 04:31N 51°56' E 004°12'0 0.0
2017-Mar-24 03:31N 51°56' E 004°12'0 0.0
2017-Mar-24 02:31N 51°56' E 004°12'0 0.0
2017-Mar-24 01:31N 51°56' E 004°12'0 0.0
2017-Mar-24 00:31N 51°56' E 004°12'0 0.0
2017-Mar-23 23:31N 51°56' E 004°12'0 0.0
2017-Mar-23 22:31N 51°56' E 004°12'0 0.0
2017-Mar-23 21:28N 51°56' E 004°12'0 0.0
2017-Mar-23 20:28N 51°56' E 004°12'0 0.0
2017-Mar-23 19:31N 51°56' E 004°12'0 0.0
2017-Mar-23 18:31N 51°56' E 004°12'0 0.0
2017-Mar-23 17:25N 51°56' E 004°12'0 0.0
2017-Mar-23 16:31N 51°56' E 004°12'0 0.0
2017-Mar-23 15:31N 51°56' E 004°12'0 0.0
2017-Mar-23 14:25N 51°56' E 004°12'0 0.0
2017-Mar-23 13:28N 51°56' E 004°12'0 0.0
2017-Mar-23 12:33N 51°56' E 004°12'0 0.4
2017-Mar-23 11:33N 51°56' E 004°12'5 5.0
2017-Mar-23 10:33N 51°58' E 004°06'1211.7
2017-Mar-23 09:34N 52°00' E 003°47'7 7.5
2017-Mar-23 08:33N 52°06' E 003°39'5 3.7
2017-Mar-23 07:19N 52°11' E 003°38'0 0.0
2017-Mar-23 06:30N 52°11' E 003°38'0 0.0
2017-Mar-23 04:12N 52°11' E 003°38'0 0.0
2017-Mar-23 03:25N 52°11' E 003°38'0 0.0
2017-Mar-23 02:25N 52°11' E 003°38'0 0.1
2017-Mar-23 01:19N 52°11' E 003°38'0 0.1
2017-Mar-23 00:30N 52°11' E 003°38'0 0.0
2017-Mar-22 22:33N 52°11' E 003°38'0 0.0
2017-Mar-22 21:07N 52°11' E 003°38'0 0.1
2017-Mar-22 19:09N 52°11' E 003°38'0 0.0
2017-Mar-22 16:22N 52°11' E 003°38'0 0.0
2017-Mar-22 15:15N 52°11' E 003°38'0 0.1
2017-Mar-22 12:04N 52°11' E 003°38'0 0.0
2017-Mar-22 09:33N 52°11' E 003°38'0 0.0
2017-Mar-22 07:28N 52°11' E 003°38'0 0.0
2017-Mar-22 06:19N 52°11' E 003°38'0 0.1
2017-Mar-22 02:06N 52°11' E 003°38'0 0.2
2017-Mar-22 01:33N 52°11' E 003°38'0 0.0
2017-Mar-22 00:30N 52°11' E 003°38'0 0.0
2017-Mar-21 23:33N 52°11' E 003°38'0 0.0
2017-Mar-21 22:28N 52°11' E 003°38'0 0.0
2017-Mar-21 21:33N 52°11' E 003°38'0 0.0
2017-Mar-21 20:25N 52°11' E 003°38'0 0.0
2017-Mar-21 19:09N 52°11' E 003°38'0 0.0
2017-Mar-21 18:33N 52°11' E 003°38'0 0.0
2017-Mar-21 11:28N 52°11' E 003°38'0 0.0
2017-Mar-21 07:33N 52°11' E 003°38'3 3.1
2017-Mar-21 06:28N 52°14' E 003°35'2 0.6
2017-Mar-21 02:29N 52°13' E 003°32'0 0.3
2017-Mar-21 01:29N 52°13' E 003°32'0 0.1
2017-Mar-21 00:28N 52°13' E 003°33'1 0.6
2017-Mar-20 23:33N 52°13' E 003°32'2 1.8
2017-Mar-20 22:32N 52°14' E 003°34'1 1.2
2017-Mar-20 21:28N 52°13' E 003°33'0 0.1
2017-Mar-20 20:33N 52°13' E 003°33'0 0.1
2017-Mar-20 17:28N 52°13' E 003°33'5 5.0
2017-Mar-20 16:33N 52°09' E 003°33'1 1.3
2017-Mar-20 15:33N 52°09' E 003°35'0 0.0
2017-Mar-20 14:33N 52°09' E 003°35'0 0.0
2017-Mar-20 10:12N 52°09' E 003°35'0 0.0
2017-Mar-20 08:18N 52°09' E 003°35'0 0.0
2017-Mar-20 05:06N 52°09' E 003°35'1 0.2
2017-Mar-20 01:32N 52°10' E 003°35'  

Dump ship's entire track history